createdAt,value
2022-10-06T00:02:19.673Z,11.98
2022-10-06T00:04:46.752Z,12.00
2022-10-06T00:07:15.566Z,12.02
2022-10-06T00:09:42.421Z,11.91
2022-10-06T00:12:09.946Z,11.94
2022-10-06T00:14:37.632Z,11.84
2022-10-06T00:17:04.594Z,11.82
2022-10-06T00:19:31.340Z,11.88
2022-10-06T00:21:57.998Z,11.72
2022-10-06T00:24:26.107Z,11.76
2022-10-06T00:26:52.747Z,11.81
2022-10-06T00:29:19.512Z,11.93
2022-10-06T00:31:46.108Z,11.84
2022-10-06T00:34:12.768Z,11.81
2022-10-06T00:36:39.398Z,11.80
2022-10-06T00:39:06.074Z,11.69
2022-10-06T00:41:34.093Z,11.49
2022-10-06T00:44:00.754Z,11.46
2022-10-06T00:46:34.169Z,11.55
2022-10-06T00:49:06.477Z,11.56
2022-10-06T00:51:35.545Z,11.57
2022-10-06T00:54:02.725Z,11.49
2022-10-06T00:56:29.353Z,11.56
2022-10-06T00:58:57.702Z,11.68
2022-10-06T01:01:25.273Z,11.66
2022-10-06T01:03:56.939Z,11.75
2022-10-06T01:06:23.678Z,11.45
2022-10-06T01:08:50.415Z,11.51
2022-10-06T01:11:17.019Z,11.84
2022-10-06T01:13:45.198Z,11.81
2022-10-06T01:16:18.889Z,11.98
2022-10-06T01:18:46.873Z,11.92
2022-10-06T01:21:20.166Z,11.94
2022-10-06T01:23:49.102Z,11.67
2022-10-06T01:26:18.643Z,11.75
2022-10-06T01:28:45.593Z,11.89
2022-10-06T01:31:12.855Z,11.71
2022-10-06T01:33:39.620Z,11.93
2022-10-06T01:36:06.889Z,12.13
2022-10-06T01:38:33.876Z,11.73
2022-10-06T01:41:02.012Z,11.77
2022-10-06T01:43:28.654Z,11.98
2022-10-06T01:45:55.429Z,12.28
2022-10-06T01:48:22.958Z,12.42
2022-10-06T01:50:49.765Z,11.92
2022-10-06T01:53:16.666Z,11.87
2022-10-06T01:55:43.697Z,11.81
2022-10-06T01:58:12.075Z,11.93
2022-10-06T02:00:39.167Z,11.77
2022-10-06T02:03:05.886Z,11.58
2022-10-06T02:05:32.689Z,11.55
2022-10-06T02:08:00.462Z,11.47
2022-10-06T02:10:27.027Z,11.61
2022-10-06T02:12:53.771Z,11.33
2022-10-06T02:15:21.969Z,11.24
2022-10-06T02:17:48.684Z,11.71
2022-10-06T02:20:15.824Z,11.89
2022-10-06T02:22:42.547Z,11.65
2022-10-06T02:25:10.022Z,11.87
2022-10-06T02:27:36.753Z,11.61
2022-10-06T02:30:04.213Z,11.43
2022-10-06T02:32:34.196Z,11.48
2022-10-06T02:35:00.918Z,11.47
2022-10-06T02:37:27.608Z,11.41
2022-10-06T02:39:54.124Z,11.53
2022-10-06T02:42:20.710Z,11.33
2022-10-06T02:44:47.415Z,11.23
2022-10-06T02:47:13.970Z,11.17
2022-10-06T02:49:41.997Z,11.31
2022-10-06T02:52:08.681Z,11.28
2022-10-06T02:54:35.224Z,11.36
2022-10-06T02:57:01.941Z,11.28
2022-10-06T02:59:28.582Z,11.38
2022-10-06T03:01:55.331Z,11.34
2022-10-06T03:04:22.137Z,11.26
2022-10-06T03:06:50.444Z,11.08
2022-10-06T03:09:17.746Z,11.13
2022-10-06T03:11:44.487Z,11.10
2022-10-06T03:14:11.120Z,11.07
2022-10-06T03:16:39.722Z,11.14
2022-10-06T03:19:07.707Z,10.97
2022-10-06T03:21:36.525Z,11.18
2022-10-06T03:24:05.076Z,11.18
2022-10-06T03:26:33.257Z,11.18
2022-10-06T03:29:00.251Z,11.36
2022-10-06T03:31:27.655Z,11.18
2022-10-06T03:33:54.824Z,11.39
2022-10-06T03:36:23.057Z,11.41
2022-10-06T03:38:49.819Z,11.31
2022-10-06T03:41:19.455Z,11.46
2022-10-06T03:43:47.707Z,11.33
2022-10-06T03:46:16.449Z,11.34
2022-10-06T03:48:43.158Z,11.31
2022-10-06T03:51:12.636Z,11.38
2022-10-06T03:53:39.190Z,11.23
2022-10-06T03:56:07.809Z,11.32
2022-10-06T03:58:37.398Z,11.48
2022-10-06T04:01:06.205Z,11.39
2022-10-06T04:03:33.713Z,11.38
2022-10-06T04:06:02.132Z,11.32
2022-10-06T04:08:31.076Z,11.45
2022-10-06T04:11:05.582Z,11.25
2022-10-06T04:13:32.167Z,11.40
2022-10-06T04:16:10.031Z,11.38
2022-10-06T04:18:37.168Z,11.33
2022-10-06T04:21:04.107Z,11.35
2022-10-06T04:23:31.153Z,11.16
2022-10-06T04:26:01.533Z,11.14
2022-10-06T04:28:28.997Z,11.23
2022-10-06T04:30:57.040Z,11.17
2022-10-06T04:33:25.222Z,11.24
2022-10-06T04:35:58.644Z,11.38
2022-10-06T04:38:25.840Z,11.25
2022-10-06T04:40:52.632Z,11.17
2022-10-06T04:43:19.395Z,11.17
2022-10-06T04:45:58.916Z,11.20
2022-10-06T04:48:27.787Z,11.17
2022-10-06T04:50:57.274Z,11.37
2022-10-06T04:53:24.628Z,11.15
2022-10-06T04:55:59.011Z,11.26
2022-10-06T04:58:26.515Z,11.02
2022-10-06T05:00:53.372Z,11.02
2022-10-06T05:03:20.089Z,11.21
2022-10-06T05:05:48.069Z,11.27
2022-10-06T05:08:15.076Z,11.09
2022-10-06T05:10:41.805Z,11.12
2022-10-06T05:13:08.568Z,11.38
2022-10-06T05:15:35.147Z,11.48
2022-10-06T05:18:01.806Z,11.26
2022-10-06T05:20:28.475Z,10.99
2022-10-06T05:22:57.571Z,11.33
2022-10-06T05:25:24.202Z,11.20
2022-10-06T05:27:50.828Z,11.76
2022-10-06T05:30:17.675Z,11.56
2022-10-06T05:32:45.548Z,11.54
2022-10-06T05:35:12.393Z,11.49
2022-10-06T05:37:38.995Z,11.64
2022-10-06T05:40:07.931Z,11.47
2022-10-06T05:42:34.693Z,11.84
2022-10-06T05:45:01.265Z,11.75
2022-10-06T05:47:27.923Z,11.84
2022-10-06T05:49:54.575Z,12.07
2022-10-06T05:52:21.148Z,11.70
2022-10-06T05:54:47.810Z,11.77
2022-10-06T05:57:15.845Z,11.48
2022-10-06T05:59:42.484Z,11.81
2022-10-06T06:02:09.181Z,11.80
2022-10-06T06:04:35.957Z,11.95
2022-10-06T06:07:02.601Z,12.12
2022-10-06T06:09:29.257Z,12.22
2022-10-06T06:11:57.733Z,12.04
2022-10-06T06:14:26.352Z,12.18
2022-10-06T06:16:53.157Z,12.48
2022-10-06T06:19:20.240Z,12.58
2022-10-06T06:21:47.329Z,12.73
2022-10-06T06:24:14.399Z,12.63
2022-10-06T06:26:41.280Z,12.69
2022-10-06T06:29:07.907Z,12.78
2022-10-06T06:31:38.484Z,12.63
2022-10-06T06:34:06.941Z,12.75
2022-10-06T06:36:36.075Z,12.82
2022-10-06T06:39:06.527Z,13.02
2022-10-06T06:41:38.511Z,12.85
2022-10-06T06:44:06.182Z,13.01
2022-10-06T06:46:37.747Z,12.87
2022-10-06T06:49:06.104Z,13.07
2022-10-06T06:51:36.616Z,13.05
2022-10-06T06:54:04.454Z,13.21
2022-10-06T06:56:32.910Z,12.99
2022-10-06T06:58:59.691Z,13.17
2022-10-06T07:01:26.617Z,13.37
2022-10-06T07:03:57.938Z,13.59
2022-10-06T07:06:28.140Z,13.56
2022-10-06T07:08:56.560Z,13.55
2022-10-06T07:11:24.892Z,13.63
2022-10-06T07:13:53.107Z,13.65
2022-10-06T07:16:21.820Z,13.55
2022-10-06T07:18:48.573Z,13.71
2022-10-06T07:21:16.816Z,13.69
2022-10-06T07:23:43.568Z,13.74
2022-10-06T07:26:10.299Z,13.59
2022-10-06T07:28:39.624Z,13.66
2022-10-06T07:31:07.474Z,13.45
2022-10-06T07:33:34.159Z,13.56
2022-10-06T07:36:02.301Z,13.89
2022-10-06T07:38:30.509Z,13.70
2022-10-06T07:41:18.354Z,13.95
2022-10-06T07:43:44.931Z,13.93
2022-10-06T07:46:12.225Z,13.87
2022-10-06T07:48:38.884Z,14.24
2022-10-06T07:51:13.305Z,14.41
2022-10-06T07:53:41.335Z,14.11
2022-10-06T07:56:08.749Z,14.33
2022-10-06T07:58:35.612Z,14.40
2022-10-06T08:01:05.920Z,14.33
2022-10-06T08:03:32.910Z,14.59
2022-10-06T08:06:01.685Z,14.53
2022-10-06T08:08:30.684Z,14.91
2022-10-06T08:11:01.484Z,14.86
2022-10-06T08:13:28.867Z,14.80
2022-10-06T08:15:55.638Z,14.69
2022-10-06T08:18:44.435Z,14.93
2022-10-06T08:21:11.068Z,14.91
2022-10-06T08:23:37.859Z,15.21
2022-10-06T08:26:06.336Z,15.14
2022-10-06T08:28:33.193Z,15.40
2022-10-06T08:31:06.645Z,15.65
2022-10-06T08:33:33.347Z,15.75
2022-10-06T08:36:03.086Z,15.64
2022-10-06T08:38:29.881Z,15.83
2022-10-06T08:40:56.601Z,15.67
2022-10-06T08:43:26.195Z,15.50
2022-10-06T08:45:58.480Z,15.53
2022-10-06T08:48:26.553Z,15.97
2022-10-06T08:51:05.661Z,15.83
2022-10-06T08:53:38.588Z,15.87
2022-10-06T08:56:10.822Z,15.65
2022-10-06T08:58:51.931Z,15.77
2022-10-06T09:01:21.321Z,15.98
2022-10-06T09:03:48.609Z,16.23
2022-10-06T09:06:27.417Z,16.10
2022-10-06T09:09:00.180Z,16.19
2022-10-06T09:11:45.351Z,16.22
2022-10-06T09:14:20.061Z,16.31
2022-10-06T09:16:52.042Z,16.47
2022-10-06T09:19:25.766Z,16.41
2022-10-06T09:21:54.114Z,16.48
2022-10-06T09:24:29.964Z,16.60
2022-10-06T09:26:57.959Z,16.60
2022-10-06T09:29:26.355Z,16.61
2022-10-06T09:31:53.021Z,16.69
2022-10-06T09:34:25.279Z,16.57
2022-10-06T09:37:02.311Z,16.49
2022-10-06T09:39:31.153Z,16.64
2022-10-06T09:42:01.587Z,16.78
2022-10-06T09:44:31.371Z,16.86
2022-10-06T09:46:58.037Z,16.84
2022-10-06T09:49:26.155Z,16.91
2022-10-06T09:52:09.016Z,17.28
2022-10-06T09:54:35.729Z,17.18
2022-10-06T09:57:10.409Z,17.12
2022-10-06T09:59:43.477Z,17.12
2022-10-06T10:02:25.487Z,17.36
2022-10-06T10:04:54.767Z,17.41
2022-10-06T10:07:23.633Z,17.49
2022-10-06T10:09:50.784Z,17.66
2022-10-06T10:12:18.744Z,17.79
2022-10-06T10:14:47.042Z,17.82
2022-10-06T10:17:18.383Z,17.93
2022-10-06T10:19:49.139Z,18.02
2022-10-06T10:22:21.742Z,17.88
2022-10-06T10:24:56.131Z,18.15
2022-10-06T10:27:31.770Z,18.33
2022-10-06T10:30:05.383Z,18.61
2022-10-06T10:32:51.962Z,18.51
2022-10-06T10:35:24.767Z,18.63
2022-10-06T10:37:55.921Z,18.61
2022-10-06T10:40:31.764Z,18.74
2022-10-06T10:43:06.080Z,18.79
2022-10-06T10:45:36.072Z,18.90
2022-10-06T10:48:07.067Z,18.99
2022-10-06T10:50:42.863Z,18.92
2022-10-06T10:55:50.095Z,19.05
2022-10-06T10:58:22.192Z,19.17
2022-10-06T11:00:55.500Z,19.33
2022-10-06T11:03:22.620Z,19.44
2022-10-06T11:06:05.361Z,19.32
2022-10-06T11:08:40.102Z,19.33
2022-10-06T11:11:15.391Z,19.60
2022-10-06T11:13:47.017Z,19.72
2022-10-06T11:16:30.639Z,19.81
2022-10-06T11:19:15.574Z,19.77
2022-10-06T11:21:49.690Z,19.92
2022-10-06T11:24:23.843Z,20.11
2022-10-06T11:27:17.459Z,20.03
2022-10-06T11:29:55.935Z,20.25
2022-10-06T11:32:30.728Z,20.27
2022-10-06T11:34:57.744Z,20.25
2022-10-06T11:37:35.755Z,20.32
2022-10-06T11:40:24.858Z,20.49
2022-10-06T11:42:57.644Z,20.79
2022-10-06T11:45:33.521Z,20.97
2022-10-06T11:48:21.019Z,21.11
2022-10-06T11:50:47.838Z,20.77
2022-10-06T11:53:40.166Z,20.78
2022-10-06T11:56:43.254Z,20.98
2022-10-06T11:59:13.055Z,21.06
2022-10-06T12:01:57.097Z,20.96
2022-10-06T12:04:25.448Z,20.95
2022-10-06T12:06:54.912Z,21.07
2022-10-06T12:09:52.988Z,21.26
2022-10-06T12:13:06.253Z,21.34
2022-10-06T12:19:07.005Z,21.52
2022-10-06T12:21:50.257Z,21.44
2022-10-06T12:24:24.531Z,21.56
2022-10-06T12:27:00.716Z,21.33
2022-10-06T12:29:42.236Z,21.36
2022-10-06T12:32:22.818Z,21.59
2022-10-06T12:34:58.130Z,21.94
2022-10-06T12:37:44.214Z,21.88
2022-10-06T12:40:47.800Z,21.88
2022-10-06T12:43:43.767Z,21.63
2022-10-06T12:46:16.229Z,21.65
2022-10-06T12:49:00.562Z,21.51
2022-10-06T12:54:05.687Z,21.77
2022-10-06T12:56:33.912Z,21.87
2022-10-06T12:59:19.213Z,21.74
2022-10-06T13:01:46.842Z,21.65
2022-10-06T13:04:32.286Z,21.77
2022-10-06T13:06:58.933Z,22.07
2022-10-06T13:09:26.916Z,22.08
2022-10-06T13:11:53.696Z,21.95
2022-10-06T13:14:20.242Z,21.65
2022-10-06T13:16:47.941Z,21.57
2022-10-06T13:19:17.803Z,21.58
2022-10-06T13:21:45.517Z,21.74
2022-10-06T13:24:14.156Z,21.66
2022-10-06T13:26:42.759Z,21.76
2022-10-06T13:29:17.721Z,21.53
2022-10-06T13:31:51.762Z,21.57
2022-10-06T13:34:27.177Z,21.84
2022-10-06T13:36:54.441Z,21.70
2022-10-06T13:39:23.035Z,21.54
2022-10-06T13:41:53.814Z,21.45
2022-10-06T13:44:35.164Z,21.27
2022-10-06T13:47:05.265Z,21.38
2022-10-06T13:49:36.616Z,21.46
2022-10-06T13:52:08.860Z,21.62
2022-10-06T13:54:41.141Z,21.50
2022-10-06T13:57:41.911Z,21.59
2022-10-06T14:00:19.032Z,21.40
2022-10-06T14:02:47.665Z,21.38
2022-10-06T14:05:30.327Z,21.39
2022-10-06T14:08:00.077Z,21.30
2022-10-06T14:10:30.770Z,21.31
2022-10-06T14:13:00.608Z,21.36
2022-10-06T14:15:35.812Z,21.27
2022-10-06T14:18:04.029Z,21.33
2022-10-06T14:20:37.009Z,21.25
2022-10-06T14:23:38.905Z,21.26
2022-10-06T14:26:06.549Z,21.31
2022-10-06T14:28:34.797Z,21.36
2022-10-06T14:31:01.604Z,21.48
2022-10-06T14:33:28.322Z,21.56
2022-10-06T14:35:55.045Z,21.73
2022-10-06T14:38:21.824Z,21.60
2022-10-06T14:40:48.439Z,21.55
2022-10-06T14:43:15.142Z,21.54
2022-10-06T14:45:44.124Z,21.39
2022-10-06T14:48:11.269Z,21.16
2022-10-06T14:50:37.997Z,21.23
2022-10-06T14:53:04.662Z,21.46
2022-10-06T14:55:31.345Z,21.46
2022-10-06T14:57:58.239Z,21.13
2022-10-06T15:00:26.144Z,21.08
2022-10-06T15:02:54.731Z,20.98
2022-10-06T15:05:21.581Z,21.06
2022-10-06T15:07:48.132Z,21.03
2022-10-06T15:10:14.899Z,20.93
2022-10-06T15:12:41.510Z,20.92
2022-10-06T15:15:08.839Z,20.73
2022-10-06T15:17:35.501Z,20.83
2022-10-06T15:20:03.776Z,20.89
2022-10-06T15:22:30.419Z,20.89
2022-10-06T15:24:57.019Z,20.32
2022-10-06T15:27:25.071Z,20.09
2022-10-06T15:29:51.925Z,19.98
2022-10-06T15:32:18.608Z,20.00
2022-10-06T15:34:45.157Z,19.98
2022-10-06T15:37:13.083Z,20.06
2022-10-06T15:39:39.778Z,20.07
2022-10-06T15:42:06.978Z,20.01
2022-10-06T15:44:33.871Z,19.82
2022-10-06T15:47:00.694Z,19.99
2022-10-06T15:49:28.627Z,19.88
2022-10-06T15:51:57.197Z,19.61
2022-10-06T15:54:26.946Z,19.70
2022-10-06T15:56:54.944Z,19.54
2022-10-06T15:59:22.852Z,19.55
2022-10-06T16:01:50.591Z,19.61
2022-10-06T16:04:19.162Z,19.49
2022-10-06T16:06:45.754Z,19.42
2022-10-06T16:09:13.318Z,19.32
2022-10-06T16:11:41.278Z,19.62
2022-10-06T16:14:09.386Z,19.34
2022-10-06T16:16:42.676Z,19.35
2022-10-06T16:19:10.854Z,19.25
2022-10-06T16:21:37.696Z,19.13
2022-10-06T16:24:04.964Z,19.35
2022-10-06T16:26:31.646Z,19.13
2022-10-06T16:28:59.709Z,19.16
2022-10-06T16:31:26.877Z,19.13
2022-10-06T16:33:53.756Z,19.05
2022-10-06T16:36:20.599Z,19.02
2022-10-06T16:38:49.971Z,19.01
2022-10-06T16:41:16.439Z,18.64
2022-10-06T16:43:44.683Z,18.60
2022-10-06T16:46:14.409Z,18.37
2022-10-06T16:48:42.704Z,18.34
2022-10-06T16:51:11.423Z,18.37
2022-10-06T16:53:39.828Z,18.37
2022-10-06T16:56:08.648Z,18.23
2022-10-06T16:58:39.694Z,18.14
2022-10-06T17:01:07.251Z,17.97
2022-10-06T17:03:35.451Z,17.87
2022-10-06T17:06:07.178Z,18.02
2022-10-06T17:08:34.715Z,17.89
2022-10-06T17:11:03.958Z,17.58
2022-10-06T17:13:30.951Z,17.64
2022-10-06T17:15:59.617Z,17.40
2022-10-06T17:18:26.437Z,17.45
2022-10-06T17:20:56.650Z,17.44
2022-10-06T17:23:23.284Z,17.47
2022-10-06T17:26:03.759Z,17.32
2022-10-06T17:28:30.572Z,17.23
2022-10-06T17:30:57.375Z,17.28
2022-10-06T17:33:24.038Z,17.33
2022-10-06T17:35:50.779Z,17.28
2022-10-06T17:38:19.140Z,17.15
2022-10-06T17:40:50.356Z,17.24
2022-10-06T17:43:16.982Z,17.14
2022-10-06T17:45:43.768Z,17.21
2022-10-06T17:48:10.490Z,17.21
2022-10-06T17:50:37.354Z,17.24
2022-10-06T17:53:04.007Z,17.33
2022-10-06T17:55:31.971Z,17.32
2022-10-06T17:57:58.647Z,17.14
2022-10-06T18:00:26.146Z,17.12
2022-10-06T18:02:53.053Z,17.25
2022-10-06T18:05:19.744Z,17.15
2022-10-06T18:07:46.455Z,17.14
2022-10-06T18:10:13.263Z,17.14
2022-10-06T18:12:41.715Z,17.16
2022-10-06T18:15:09.199Z,17.32
2022-10-06T18:17:38.956Z,17.13
2022-10-06T18:20:05.986Z,17.08
2022-10-06T18:22:32.737Z,16.73
2022-10-06T18:24:59.765Z,16.50
2022-10-06T18:27:26.861Z,16.39
2022-10-06T18:29:56.612Z,16.64
2022-10-06T18:37:59.738Z,16.61
2022-10-06T18:40:26.607Z,16.61
2022-10-06T18:42:56.223Z,16.64
2022-10-06T18:45:24.586Z,16.38
2022-10-06T18:47:51.229Z,16.39
2022-10-06T18:50:18.117Z,16.35
2022-10-06T18:52:44.828Z,16.58
2022-10-06T18:55:11.574Z,16.50
2022-10-06T18:57:38.200Z,16.50
2022-10-06T19:00:06.129Z,16.41
2022-10-06T19:02:34.773Z,16.45
2022-10-06T19:05:01.629Z,16.36
2022-10-06T19:07:28.979Z,16.39
2022-10-06T19:09:55.902Z,16.20
2022-10-06T19:12:22.634Z,16.37
2022-10-06T19:14:49.494Z,16.28
2022-10-06T19:17:16.540Z,16.28
2022-10-06T19:19:47.026Z,16.48
2022-10-06T19:22:14.189Z,16.35
2022-10-06T19:24:42.604Z,16.08
2022-10-06T19:27:12.001Z,16.14
2022-10-06T19:29:39.191Z,16.11
2022-10-06T19:32:06.775Z,16.19
2022-10-06T19:34:37.532Z,16.23
2022-10-06T19:37:06.428Z,16.22
2022-10-06T19:39:38.020Z,16.20
2022-10-06T19:42:04.806Z,16.11
2022-10-06T19:44:31.568Z,16.17
2022-10-06T19:46:58.194Z,16.18
2022-10-06T19:49:25.102Z,16.11
2022-10-06T19:51:51.854Z,16.07
2022-10-06T19:54:19.838Z,15.93
2022-10-06T19:56:47.021Z,15.94
2022-10-06T19:59:15.401Z,15.87
2022-10-06T20:01:42.738Z,15.77
2022-10-06T20:04:10.086Z,15.56
2022-10-06T20:06:36.850Z,15.83
2022-10-06T20:09:04.412Z,15.96
2022-10-06T20:11:33.503Z,15.96
2022-10-06T20:14:00.244Z,15.72
2022-10-06T20:16:27.136Z,16.03
2022-10-06T20:18:53.860Z,15.96
2022-10-06T20:21:22.727Z,15.98
2022-10-06T20:23:51.409Z,15.92
2022-10-06T20:26:19.965Z,15.83
2022-10-06T20:28:49.122Z,15.77
2022-10-06T20:31:18.305Z,15.82
2022-10-06T20:33:45.324Z,15.78
2022-10-06T20:36:12.871Z,15.86
2022-10-06T20:38:39.770Z,15.78
2022-10-06T20:41:06.375Z,15.66
2022-10-06T20:43:33.955Z,15.82
2022-10-06T20:46:02.071Z,15.80
2022-10-06T20:48:28.844Z,15.75
2022-10-06T20:50:55.614Z,15.80
2022-10-06T20:53:27.743Z,15.76
2022-10-06T20:55:54.726Z,15.71
2022-10-06T20:58:21.673Z,15.75
2022-10-06T21:00:48.298Z,15.71
2022-10-06T21:03:16.464Z,15.72
2022-10-06T21:05:48.308Z,15.80
2022-10-06T21:08:14.912Z,15.72
2022-10-06T21:10:41.753Z,15.63
2022-10-06T21:13:08.639Z,15.43
2022-10-06T21:15:35.558Z,15.49
2022-10-06T21:18:02.735Z,15.40
2022-10-06T21:20:30.759Z,15.42
2022-10-06T21:22:59.142Z,15.43
2022-10-06T21:25:25.782Z,15.31
2022-10-06T21:27:52.744Z,15.35
2022-10-06T21:30:19.340Z,15.26
2022-10-06T21:32:45.973Z,15.23
2022-10-06T21:35:12.948Z,15.12
2022-10-06T21:37:41.239Z,14.91
2022-10-06T21:40:08.883Z,15.02
2022-10-06T21:42:35.592Z,14.99
2022-10-06T21:45:02.164Z,14.91
2022-10-06T21:47:28.787Z,14.90
2022-10-06T21:49:55.502Z,14.95
2022-10-06T21:52:22.064Z,14.91
2022-10-06T21:54:50.007Z,14.87
2022-10-06T21:57:16.652Z,14.84
2022-10-06T21:59:43.217Z,14.91
2022-10-06T22:02:10.458Z,14.99
2022-10-06T22:04:37.153Z,14.82
2022-10-06T22:07:04.120Z,14.96
2022-10-06T22:09:30.749Z,14.80
2022-10-06T22:11:58.780Z,14.86
2022-10-06T22:14:25.458Z,14.85
2022-10-06T22:16:51.990Z,14.99
2022-10-06T22:19:18.690Z,14.80
2022-10-06T22:21:47.012Z,14.81
2022-10-06T22:24:15.279Z,14.74
2022-10-06T22:26:43.291Z,14.78
2022-10-06T22:29:13.506Z,14.78
2022-10-06T22:31:42.452Z,14.79
2022-10-06T22:34:11.694Z,14.80
2022-10-06T22:36:39.037Z,14.71
2022-10-06T22:39:05.800Z,14.68
2022-10-06T22:41:32.816Z,14.77
2022-10-06T22:43:59.915Z,14.77
2022-10-06T22:46:30.447Z,14.77
2022-10-06T22:48:57.569Z,14.69
2022-10-06T22:51:24.708Z,14.70
2022-10-06T22:53:57.283Z,14.71
2022-10-06T22:56:25.485Z,14.63
2022-10-06T22:58:52.075Z,14.67
2022-10-06T23:01:18.836Z,14.77
2022-10-06T23:03:47.257Z,14.71
2022-10-06T23:06:16.181Z,14.62
2022-10-06T23:08:43.213Z,14.72
2022-10-06T23:11:11.812Z,14.68
2022-10-06T23:13:38.494Z,14.67
2022-10-06T23:16:08.066Z,14.80
2022-10-06T23:18:37.058Z,14.87
2022-10-06T23:21:06.842Z,14.60
2022-10-06T23:23:33.684Z,14.75
2022-10-06T23:26:05.783Z,14.69
2022-10-06T23:28:32.705Z,14.77
2022-10-06T23:30:59.502Z,14.65
2022-10-06T23:33:28.801Z,14.68
2022-10-06T23:35:56.786Z,14.64
2022-10-06T23:38:24.885Z,14.62
2022-10-06T23:40:51.855Z,14.61
2022-10-06T23:43:18.544Z,14.63
2022-10-06T23:45:45.195Z,14.61
2022-10-06T23:48:11.865Z,14.58
2022-10-06T23:50:38.747Z,14.60
2022-10-06T23:53:05.323Z,14.54
2022-10-06T23:55:33.474Z,14.58
2022-10-06T23:58:00.058Z,14.56
